createdAt,value
2023-05-18T00:00:54.036Z,1.27
2023-05-18T00:04:17.192Z,1.50
2023-05-18T00:07:39.390Z,1.60
2023-05-18T00:11:00.903Z,1.70
2023-05-18T00:14:23.368Z,1.83
2023-05-18T00:17:46.686Z,1.50
2023-05-18T00:21:08.905Z,1.27
2023-05-18T00:24:30.199Z,1.77
2023-05-18T00:27:51.992Z,1.90
2023-05-18T00:31:13.502Z,2.63
2023-05-18T00:34:36.742Z,1.57
2023-05-18T00:37:58.074Z,1.70
2023-05-18T00:41:19.653Z,2.27
2023-05-18T00:44:40.866Z,1.70
2023-05-18T00:48:02.198Z,1.90
2023-05-18T00:51:25.686Z,1.97
2023-05-18T00:54:47.370Z,1.90
2023-05-18T00:58:08.814Z,2.07
2023-05-18T01:01:34.486Z,1.63
2023-05-18T01:04:56.167Z,1.93
2023-05-18T01:08:19.644Z,1.10
2023-05-18T01:11:52.938Z,1.93
2023-05-18T01:15:17.640Z,1.30
2023-05-18T01:18:44.811Z,1.83
2023-05-18T01:22:22.070Z,1.47
2023-05-18T01:25:56.757Z,2.00
2023-05-18T01:29:21.651Z,1.80
2023-05-18T01:32:43.320Z,1.53
2023-05-18T01:36:05.006Z,2.00
2023-05-18T01:39:26.423Z,1.90
2023-05-18T01:42:52.675Z,2.00
2023-05-18T01:46:35.625Z,1.27
2023-05-18T01:50:03.631Z,1.43
2023-05-18T01:53:28.573Z,1.60
2023-05-18T01:56:51.702Z,2.17
2023-05-18T02:00:13.949Z,1.87
2023-05-18T02:03:36.584Z,1.60
2023-05-18T02:06:58.253Z,1.73
2023-05-18T02:10:20.432Z,1.67
2023-05-18T02:13:41.948Z,1.47
2023-05-18T02:17:03.594Z,1.70
2023-05-18T02:20:28.335Z,1.33
2023-05-18T02:23:51.487Z,1.53
2023-05-18T02:27:15.164Z,1.87
2023-05-18T02:30:36.930Z,1.53
2023-05-18T02:33:58.359Z,1.40
2023-05-18T02:37:22.986Z,2.10
2023-05-18T02:40:44.660Z,1.70
2023-05-18T02:44:07.162Z,2.13
2023-05-18T02:47:28.546Z,1.40
2023-05-18T02:50:50.696Z,1.67
2023-05-18T02:54:13.237Z,1.63
2023-05-18T02:57:34.505Z,1.57
2023-05-18T03:00:56.094Z,1.87
2023-05-18T03:04:17.908Z,1.77
2023-05-18T03:07:39.370Z,1.33
2023-05-18T03:11:02.024Z,1.80
2023-05-18T03:14:24.562Z,1.50
2023-05-18T03:17:46.785Z,1.17
2023-05-18T03:21:08.685Z,1.67
2023-05-18T03:24:40.012Z,1.60
2023-05-18T03:28:02.687Z,2.13
2023-05-18T03:31:23.974Z,1.47
2023-05-18T03:34:47.663Z,1.83
2023-05-18T03:38:09.035Z,1.57
2023-05-18T03:41:31.757Z,1.80
2023-05-18T03:44:54.416Z,1.33
2023-05-18T03:48:15.889Z,1.17
2023-05-18T03:51:37.442Z,1.80
2023-05-18T03:54:59.020Z,1.83
2023-05-18T03:58:21.038Z,1.63
2023-05-18T04:01:44.405Z,2.13
2023-05-18T04:05:06.728Z,1.70
2023-05-18T04:08:30.288Z,1.47
2023-05-18T04:11:52.261Z,1.67
2023-05-18T04:15:14.599Z,1.60
2023-05-18T04:18:38.020Z,1.50
2023-05-18T04:21:59.737Z,1.73
2023-05-18T04:25:21.538Z,1.60
2023-05-18T04:28:43.213Z,1.30
2023-05-18T04:32:04.740Z,1.70
2023-05-18T04:35:28.687Z,1.60
2023-05-18T04:38:50.787Z,1.90
2023-05-18T04:42:14.016Z,1.53
2023-05-18T04:45:35.647Z,2.13
2023-05-18T04:48:58.063Z,1.50
2023-05-18T04:52:21.724Z,1.70
2023-05-18T04:55:42.962Z,1.50
2023-05-18T04:59:04.212Z,1.37
2023-05-18T05:02:25.817Z,1.23
2023-05-18T05:05:47.546Z,1.40
2023-05-18T05:09:10.457Z,1.20
2023-05-18T05:12:31.993Z,1.63
2023-05-18T05:15:53.729Z,1.73
2023-05-18T05:19:15.129Z,2.00
2023-05-18T05:22:36.626Z,1.40
2023-05-18T05:25:59.820Z,1.30
2023-05-18T05:29:21.609Z,1.53
2023-05-18T05:32:43.477Z,2.00
2023-05-18T05:36:05.398Z,1.37
2023-05-18T05:39:26.838Z,1.70
2023-05-18T05:42:49.469Z,1.67
2023-05-18T05:46:10.824Z,1.90
2023-05-18T05:49:32.676Z,1.60
2023-05-18T05:52:54.134Z,1.67
2023-05-18T05:56:15.586Z,1.30
2023-05-18T05:59:38.506Z,1.87
2023-05-18T06:03:00.265Z,1.57
2023-05-18T06:06:21.975Z,1.63
2023-05-18T06:09:43.365Z,2.37
2023-05-18T06:13:05.601Z,1.40
2023-05-18T06:16:28.868Z,1.30
2023-05-18T06:19:50.635Z,2.03
2023-05-18T06:23:12.011Z,1.27
2023-05-18T06:26:33.437Z,1.40
2023-05-18T06:29:55.065Z,1.63
2023-05-18T06:33:18.017Z,1.67
2023-05-18T06:36:39.846Z,1.57
2023-05-18T06:40:01.304Z,1.50
2023-05-18T06:43:22.922Z,1.87
2023-05-18T06:46:44.541Z,2.13
2023-05-18T06:50:07.952Z,1.40
2023-05-18T06:53:31.630Z,1.50
2023-05-18T06:56:53.669Z,1.90
2023-05-18T07:00:16.624Z,1.87
2023-05-18T07:03:38.485Z,1.90
2023-05-18T07:07:01.494Z,2.00
2023-05-18T07:10:23.485Z,1.70
2023-05-18T07:13:44.764Z,1.57
2023-05-18T07:17:06.964Z,2.07
2023-05-18T07:20:28.609Z,1.53
2023-05-18T07:23:52.567Z,1.73
2023-05-18T07:27:14.472Z,1.43
2023-05-18T07:30:36.027Z,1.37
2023-05-18T07:33:57.488Z,1.40
2023-05-18T07:37:18.741Z,1.20
2023-05-18T07:40:41.562Z,1.67
2023-05-18T07:44:03.020Z,1.60
2023-05-18T07:47:24.408Z,1.60
2023-05-18T07:50:46.242Z,1.63
2023-05-18T07:54:07.692Z,2.00
2023-05-18T07:57:30.990Z,1.67
2023-05-18T08:00:52.814Z,1.83
2023-05-18T08:04:14.602Z,1.80
2023-05-18T08:07:36.126Z,1.70
2023-05-18T08:10:58.343Z,1.50
2023-05-18T08:14:21.685Z,1.40
2023-05-18T08:17:43.298Z,1.80
2023-05-18T08:21:08.068Z,1.30
2023-05-18T08:24:29.447Z,1.60
2023-05-18T08:27:51.178Z,1.57
2023-05-18T08:31:13.903Z,1.50
2023-05-18T08:34:35.891Z,1.60
2023-05-18T08:37:57.588Z,2.13
2023-05-18T08:41:22.856Z,1.50
2023-05-18T08:44:51.068Z,1.73
2023-05-18T08:48:16.779Z,1.77
2023-05-18T08:51:38.871Z,1.67
2023-05-18T08:55:02.748Z,1.90
2023-05-18T08:58:45.048Z,1.80
2023-05-18T09:02:06.595Z,1.73
2023-05-18T09:05:30.149Z,1.90
2023-05-18T09:08:53.835Z,1.60
2023-05-18T09:12:17.208Z,1.70
2023-05-18T09:15:38.738Z,1.93
2023-05-18T09:19:00.406Z,1.70
2023-05-18T09:22:23.456Z,1.70
2023-05-18T09:25:46.352Z,1.93
2023-05-18T09:29:17.451Z,1.23
2023-05-18T09:32:39.681Z,1.87
2023-05-18T09:36:02.028Z,2.50
2023-05-18T09:39:24.725Z,1.70
2023-05-18T09:42:46.384Z,1.87
2023-05-18T09:46:08.480Z,1.80
2023-05-18T09:49:31.437Z,1.47
2023-05-18T09:52:53.045Z,1.70
2023-05-18T09:56:19.016Z,1.70
2023-05-18T09:59:41.429Z,2.00
2023-05-18T10:03:03.959Z,2.40
2023-05-18T10:06:28.441Z,1.53
2023-05-18T10:10:03.398Z,1.60
2023-05-18T10:13:28.189Z,1.60
2023-05-18T10:16:51.705Z,2.13
2023-05-18T10:20:21.070Z,1.63
2023-05-18T10:23:43.507Z,1.50
2023-05-18T10:27:09.926Z,2.03
2023-05-18T10:30:33.887Z,1.60
2023-05-18T10:33:56.926Z,1.50
2023-05-18T10:37:20.036Z,1.63
2023-05-18T10:40:44.197Z,1.57
2023-05-18T10:44:07.116Z,1.77
2023-05-18T10:47:30.379Z,2.10
2023-05-18T10:50:53.710Z,1.80
2023-05-18T10:54:16.015Z,1.70
2023-05-18T10:57:41.484Z,1.60
2023-05-18T11:01:06.458Z,1.90
2023-05-18T11:04:30.598Z,1.93
2023-05-18T11:07:52.210Z,2.23
2023-05-18T11:11:13.473Z,1.77
2023-05-18T11:14:35.153Z,1.90
2023-05-18T11:18:14.961Z,2.03
2023-05-18T11:21:54.723Z,1.60
2023-05-18T11:25:37.478Z,1.60
2023-05-18T11:28:59.959Z,1.93
2023-05-18T11:32:30.352Z,1.60
2023-05-18T11:35:56.751Z,2.03
2023-05-18T11:39:26.025Z,2.10
2023-05-18T11:42:59.237Z,1.93
2023-05-18T11:46:22.802Z,1.90
2023-05-18T11:49:46.341Z,2.30
2023-05-18T11:53:07.809Z,1.70
2023-05-18T11:56:34.476Z,2.23
2023-05-18T11:59:57.580Z,2.27
2023-05-18T12:03:20.280Z,1.90
2023-05-18T12:06:42.288Z,1.90
2023-05-18T12:10:06.119Z,1.97
2023-05-18T12:13:28.921Z,1.80
2023-05-18T12:16:51.142Z,1.70
2023-05-18T12:20:13.981Z,1.93
2023-05-18T12:23:39.484Z,1.87
2023-05-18T12:27:06.787Z,2.00
2023-05-18T12:30:35.584Z,2.17
2023-05-18T12:33:59.242Z,1.90
2023-05-18T12:37:33.793Z,2.30
2023-05-18T12:40:57.210Z,1.97
2023-05-18T12:44:19.088Z,2.10
2023-05-18T12:47:42.970Z,2.13
2023-05-18T12:51:05.083Z,1.90
2023-05-18T12:54:30.285Z,1.60
2023-05-18T12:58:01.620Z,1.73
2023-05-18T13:01:25.054Z,2.37
2023-05-18T13:05:00.623Z,2.20
2023-05-18T13:08:22.527Z,2.00
2023-05-18T13:11:51.971Z,1.83
2023-05-18T13:15:23.028Z,1.90
2023-05-18T13:18:47.474Z,1.93
2023-05-18T13:22:10.619Z,1.90
2023-05-18T13:25:33.183Z,1.73
2023-05-18T13:28:56.817Z,1.73
2023-05-18T13:32:18.090Z,1.93
2023-05-18T13:35:42.063Z,1.87
2023-05-18T13:39:07.181Z,1.70
2023-05-18T13:42:28.699Z,1.93
2023-05-18T13:45:50.256Z,1.60
2023-05-18T13:49:12.718Z,1.67
2023-05-18T13:52:34.110Z,2.07
2023-05-18T13:55:57.036Z,1.87
2023-05-18T13:59:19.543Z,2.13
2023-05-18T14:02:41.538Z,1.93
2023-05-18T14:06:03.979Z,1.93
2023-05-18T14:09:26.165Z,1.60
2023-05-18T14:12:48.778Z,1.53
2023-05-18T14:16:10.010Z,1.93
2023-05-18T14:19:31.162Z,1.90
2023-05-18T14:22:52.893Z,1.40
2023-05-18T14:26:14.475Z,1.83
2023-05-18T14:29:37.409Z,1.83
2023-05-18T14:32:58.830Z,1.70
2023-05-18T14:36:22.052Z,1.60
2023-05-18T14:39:43.930Z,1.77
2023-05-18T14:43:05.680Z,2.00
2023-05-18T14:46:28.496Z,1.97
2023-05-18T14:49:50.339Z,1.80
2023-05-18T14:53:11.697Z,2.00
2023-05-18T14:56:33.222Z,1.93
2023-05-18T14:59:54.482Z,1.70
2023-05-18T15:03:17.312Z,1.50
2023-05-18T15:06:39.060Z,2.27
2023-05-18T15:10:00.309Z,2.13
2023-05-18T15:13:21.591Z,2.00
2023-05-18T15:16:43.265Z,1.70
2023-05-18T15:20:07.877Z,2.03
2023-05-18T15:23:29.783Z,1.87
2023-05-18T15:26:51.255Z,1.80
2023-05-18T15:30:13.632Z,1.90
2023-05-18T15:33:36.633Z,1.53
2023-05-18T15:36:59.406Z,2.07
2023-05-18T15:40:21.213Z,2.13
2023-05-18T15:43:43.538Z,2.10
2023-05-18T15:47:05.948Z,2.30
2023-05-18T15:50:27.431Z,1.90
2023-05-18T15:53:50.460Z,1.70
2023-05-18T15:57:11.693Z,1.70
2023-05-18T16:00:33.212Z,1.80
2023-05-18T16:03:54.765Z,1.77
2023-05-18T16:07:16.593Z,1.70
2023-05-18T16:10:39.720Z,1.50
2023-05-18T16:14:01.069Z,1.80
2023-05-18T16:17:22.384Z,1.77
2023-05-18T16:20:44.175Z,1.30
2023-05-18T16:24:06.381Z,1.63
2023-05-18T16:27:29.414Z,1.57
2023-05-18T16:30:50.915Z,1.80
2023-05-18T16:34:12.607Z,1.73
2023-05-18T16:37:33.819Z,1.53
2023-05-18T16:40:55.303Z,1.60
2023-05-18T16:44:18.013Z,1.80
2023-05-18T16:47:39.431Z,1.80
2023-05-18T16:51:01.095Z,2.63
2023-05-18T16:54:22.595Z,2.60
2023-05-18T16:57:44.156Z,1.70
2023-05-18T17:01:19.318Z,1.50
2023-05-18T17:04:49.587Z,1.67
2023-05-18T17:08:11.553Z,1.60
2023-05-18T17:11:32.942Z,1.63
2023-05-18T17:14:54.291Z,2.13
2023-05-18T17:18:17.346Z,1.83
2023-05-18T17:21:38.928Z,1.77
2023-05-18T17:25:00.458Z,1.47
2023-05-18T17:28:21.933Z,1.60
2023-05-18T17:31:43.458Z,1.40
2023-05-18T17:35:07.987Z,1.63
2023-05-18T17:38:29.506Z,1.60
2023-05-18T17:41:52.386Z,1.27
2023-05-18T17:45:13.664Z,1.90
2023-05-18T17:48:35.074Z,1.33
2023-05-18T17:51:58.472Z,1.90
2023-05-18T17:55:20.134Z,1.90
2023-05-18T17:58:41.759Z,1.70
2023-05-18T18:02:03.486Z,2.07
2023-05-18T18:05:25.147Z,1.73
2023-05-18T18:08:47.768Z,1.70
2023-05-18T18:12:09.952Z,6.40
2023-05-18T18:15:31.696Z,2.23
2023-05-18T18:18:53.302Z,8.43
2023-05-18T18:22:14.815Z,4.23
2023-05-18T18:25:37.565Z,3.53
2023-05-18T18:28:58.891Z,3.33
2023-05-18T18:32:20.367Z,3.03
2023-05-18T18:35:43.092Z,2.90
2023-05-18T18:39:05.797Z,3.67
2023-05-18T18:42:28.670Z,3.00
2023-05-18T18:45:50.593Z,2.10
2023-05-18T18:49:12.183Z,2.77
2023-05-18T18:52:33.484Z,1.87
2023-05-18T18:55:56.585Z,2.07
2023-05-18T18:59:19.532Z,1.77
2023-05-18T19:02:41.799Z,1.87
2023-05-18T19:06:03.801Z,3.07
2023-05-18T19:09:25.127Z,1.90
2023-05-18T19:12:46.294Z,2.13
2023-05-18T19:16:08.871Z,2.10
2023-05-18T19:19:32.486Z,2.33
2023-05-18T19:22:54.197Z,1.80
2023-05-18T19:26:15.869Z,1.97
2023-05-18T19:29:37.491Z,1.50
2023-05-18T19:33:00.477Z,1.80
2023-05-18T19:36:22.205Z,2.43
2023-05-18T19:39:43.906Z,1.97
2023-05-18T19:43:05.487Z,1.90
2023-05-18T19:46:26.835Z,2.13
2023-05-18T19:49:49.991Z,1.60
2023-05-18T19:53:11.651Z,2.03
2023-05-18T19:56:32.898Z,1.90
2023-05-18T19:59:54.228Z,1.80
2023-05-18T20:03:16.413Z,1.83
2023-05-18T20:06:39.213Z,2.43
2023-05-18T20:10:00.628Z,2.00
2023-05-18T20:13:21.812Z,1.60
2023-05-18T20:16:43.320Z,1.80
2023-05-18T20:20:06.169Z,2.07
2023-05-18T20:23:28.821Z,2.00
2023-05-18T20:26:50.610Z,1.93
2023-05-18T20:30:12.580Z,1.57
2023-05-18T20:33:35.139Z,1.93
2023-05-18T20:36:56.699Z,1.70
2023-05-18T20:40:19.497Z,2.17
2023-05-18T20:43:40.896Z,1.90
2023-05-18T20:47:02.616Z,1.80
2023-05-18T20:50:24.081Z,2.43
2023-05-18T20:53:45.818Z,1.90
2023-05-18T20:57:08.694Z,2.10
2023-05-18T21:00:30.765Z,1.67
2023-05-18T21:03:52.559Z,2.37
2023-05-18T21:07:16.592Z,2.27
2023-05-18T21:10:39.031Z,1.93
2023-05-18T21:14:01.819Z,2.27
2023-05-18T21:17:23.198Z,2.50
2023-05-18T21:20:44.605Z,2.70
2023-05-18T21:24:06.440Z,3.27
2023-05-18T21:27:27.864Z,3.30
2023-05-18T21:30:50.584Z,5.60
2023-05-18T21:34:12.044Z,5.50
2023-05-18T21:37:33.153Z,3.23
2023-05-18T21:40:56.380Z,3.27
2023-05-18T21:44:17.917Z,2.30
2023-05-18T21:47:40.878Z,4.00
2023-05-18T21:51:04.168Z,2.90
2023-05-18T21:54:26.400Z,2.73
2023-05-18T21:57:48.004Z,2.23
2023-05-18T22:01:09.316Z,4.10
2023-05-18T22:04:32.507Z,3.67
2023-05-18T22:07:53.844Z,2.83
2023-05-18T22:11:16.278Z,2.73
2023-05-18T22:14:37.857Z,2.70
2023-05-18T22:18:01.981Z,2.40
2023-05-18T22:21:24.704Z,2.53
2023-05-18T22:24:47.802Z,2.53
2023-05-18T22:28:09.413Z,2.80
2023-05-18T22:31:30.674Z,2.60
2023-05-18T22:34:53.562Z,2.93
2023-05-18T22:38:16.711Z,2.83
2023-05-18T22:41:38.466Z,3.23
2023-05-18T22:44:59.902Z,3.10
2023-05-18T22:48:21.391Z,3.73
2023-05-18T22:51:43.427Z,5.20
2023-05-18T22:55:12.912Z,4.07
2023-05-18T22:58:34.668Z,7.63
2023-05-18T23:01:56.011Z,5.80
2023-05-18T23:05:18.299Z,4.13
2023-05-18T23:08:40.088Z,4.37
2023-05-18T23:12:03.060Z,4.97
2023-05-18T23:15:24.501Z,3.90
2023-05-18T23:18:48.703Z,3.87
2023-05-18T23:22:10.145Z,4.73
2023-05-18T23:25:31.622Z,3.60
2023-05-18T23:28:54.473Z,5.10
2023-05-18T23:32:15.896Z,3.87
2023-05-18T23:35:39.425Z,3.77
2023-05-18T23:39:01.853Z,7.60
2023-05-18T23:42:25.780Z,6.50
2023-05-18T23:45:49.151Z,3.27
2023-05-18T23:49:11.229Z,3.53
2023-05-18T23:52:34.252Z,4.07
2023-05-18T23:55:57.810Z,3.47
2023-05-18T23:59:19.946Z,3.13
